Etusivu
METAR-TAF:

METAR-TAF

Lentoasemat :

Nouakchottin kansainvälinen lentoasema

Nouakchott, Mauritania

Leveyspiiri: 18-18-36N, Pituuspiiri: 015-58-11W, korkeus merenpinnasta: 3 m

Tämänhetkinen sää

Tämä raportti tehtiin 38 minuuttia sitten, kello 13.00 UTC
Tuuli 13 kn luoteesta
Lämpötila 27°C
Kosteus 45%
Ilmanpaine 1011 hPa
Näkyvyys: 8000 m

METAR: GQNO 201300Z 31013KT 8000 NSC 27/14 Q1011 NOSIG

Aika: 13:38 (13:38 UTC)

Sääennuste

Tämä raportti tehtiin 2 tuntia ja 38 minuuttia sitten, kello 11.00 UTC
Ennuste voimassa 20. päivästä klo 12 UTC - 21. päivään klo 18 UTC
Tuuli 14 kn pohjoisen/luoteesta
Näkyvyys: 7000 m

TAF: GQNO 201100Z 2012/2118 34014KT 7000 NSC

Säähavainnot ja -ennusteet yli 4000 lentoasemalta (METAR- ja TAF-raportit).

Käytössä olevat sääasemat on merkitty karttaan keltaisilla ja punaisilla pisteillä.

Aseta hiiri pisteen päälle nähdäksesi sääaseman nimen.

Klikkaa sitten nähdäksesi säähavainnot ja -ennusteet.

Kartan vaihtaminen: klikkaa mustalla rastilla varustettuja vihreitä pisteitä, niin voit zoomata sisään; viivalla varustettua vihreää pistettä, niin voit zoomata ulos tai vihreitä nuolia, niin pääset viereisille kartoille.


METAR-TAF: